sensor_id;sensor_type;location;lat;lon;timestamp;temperature;humidity
20672;DHT22;10495;50.922;4.760;2022-07-17T00:00:20;16.40;53.10
20672;DHT22;10495;50.922;4.760;2022-07-17T00:02:46;16.40;53.30
20672;DHT22;10495;50.922;4.760;2022-07-17T00:05:14;16.40;53.50
20672;DHT22;10495;50.922;4.760;2022-07-17T00:07:39;16.30;53.60
20672;DHT22;10495;50.922;4.760;2022-07-17T00:10:05;16.30;53.90
20672;DHT22;10495;50.922;4.760;2022-07-17T00:12:31;16.20;54.00
20672;DHT22;10495;50.922;4.760;2022-07-17T00:14:57;16.10;54.10
20672;DHT22;10495;50.922;4.760;2022-07-17T00:17:23;16.00;54.00
20672;DHT22;10495;50.922;4.760;2022-07-17T00:19:49;16.00;54.30
20672;DHT22;10495;50.922;4.760;2022-07-17T00:22:14;16.00;54.30
20672;DHT22;10495;50.922;4.760;2022-07-17T00:24:40;15.90;54.40
20672;DHT22;10495;50.922;4.760;2022-07-17T00:27:06;15.80;54.70
20672;DHT22;10495;50.922;4.760;2022-07-17T00:29:31;15.80;54.70
20672;DHT22;10495;50.922;4.760;2022-07-17T00:31:57;15.70;55.00
20672;DHT22;10495;50.922;4.760;2022-07-17T00:34:23;15.60;55.20
20672;DHT22;10495;50.922;4.760;2022-07-17T00:36:48;15.60;55.30
20672;DHT22;10495;50.922;4.760;2022-07-17T00:39:14;15.50;55.30
20672;DHT22;10495;50.922;4.760;2022-07-17T00:41:39;15.50;55.30
20672;DHT22;10495;50.922;4.760;2022-07-17T00:44:08;15.50;55.50
20672;DHT22;10495;50.922;4.760;2022-07-17T00:46:34;15.50;55.60
20672;DHT22;10495;50.922;4.760;2022-07-17T00:49:00;15.50;55.50
20672;DHT22;10495;50.922;4.760;2022-07-17T00:51:26;15.50;55.50
20672;DHT22;10495;50.922;4.760;2022-07-17T00:53:52;15.40;55.80
20672;DHT22;10495;50.922;4.760;2022-07-17T00:56:19;15.40;56.00
20672;DHT22;10495;50.922;4.760;2022-07-17T00:58:48;15.40;55.80
20672;DHT22;10495;50.922;4.760;2022-07-17T01:01:15;15.40;56.00
20672;DHT22;10495;50.922;4.760;2022-07-17T01:03:41;15.30;56.10
20672;DHT22;10495;50.922;4.760;2022-07-17T01:06:07;15.20;56.30
20672;DHT22;10495;50.922;4.760;2022-07-17T01:08:33;15.20;56.50
20672;DHT22;10495;50.922;4.760;2022-07-17T01:10:59;15.20;56.50
20672;DHT22;10495;50.922;4.760;2022-07-17T01:13:26;15.20;56.40
20672;DHT22;10495;50.922;4.760;2022-07-17T01:15:52;15.10;56.50
20672;DHT22;10495;50.922;4.760;2022-07-17T01:18:18;15.00;56.70
20672;DHT22;10495;50.922;4.760;2022-07-17T01:20:45;14.90;56.90
20672;DHT22;10495;50.922;4.760;2022-07-17T01:23:12;15.00;56.80
20672;DHT22;10495;50.922;4.760;2022-07-17T01:25:38;14.90;56.90
20672;DHT22;10495;50.922;4.760;2022-07-17T01:28:04;14.90;57.00
20672;DHT22;10495;50.922;4.760;2022-07-17T01:30:30;14.90;57.00
20672;DHT22;10495;50.922;4.760;2022-07-17T01:32:56;14.90;57.10
20672;DHT22;10495;50.922;4.760;2022-07-17T01:35:22;14.90;57.10
20672;DHT22;10495;50.922;4.760;2022-07-17T01:37:48;14.80;57.20
20672;DHT22;10495;50.922;4.760;2022-07-17T01:40:15;14.80;57.30
20672;DHT22;10495;50.922;4.760;2022-07-17T01:42:47;14.80;57.40
20672;DHT22;10495;50.922;4.760;2022-07-17T01:45:15;14.70;57.70
20672;DHT22;10495;50.922;4.760;2022-07-17T01:47:41;14.60;58.20
20672;DHT22;10495;50.922;4.760;2022-07-17T01:50:07;14.60;58.20
20672;DHT22;10495;50.922;4.760;2022-07-17T01:52:36;14.60;58.10
20672;DHT22;10495;50.922;4.760;2022-07-17T01:55:06;14.60;58.40
20672;DHT22;10495;50.922;4.760;2022-07-17T01:57:32;14.60;58.10
20672;DHT22;10495;50.922;4.760;2022-07-17T01:59:58;14.50;58.20
20672;DHT22;10495;50.922;4.760;2022-07-17T02:02:23;14.50;58.30
20672;DHT22;10495;50.922;4.760;2022-07-17T02:04:49;14.50;58.30
20672;DHT22;10495;50.922;4.760;2022-07-17T02:07:14;14.50;58.40
20672;DHT22;10495;50.922;4.760;2022-07-17T02:09:40;14.40;58.60
20672;DHT22;10495;50.922;4.760;2022-07-17T02:12:06;14.50;58.60
20672;DHT22;10495;50.922;4.760;2022-07-17T02:14:32;14.40;58.50
20672;DHT22;10495;50.922;4.760;2022-07-17T02:16:58;14.50;58.60
20672;DHT22;10495;50.922;4.760;2022-07-17T02:19:24;14.30;58.70
20672;DHT22;10495;50.922;4.760;2022-07-17T02:21:49;14.30;58.70
20672;DHT22;10495;50.922;4.760;2022-07-17T02:24:15;14.20;58.80
20672;DHT22;10495;50.922;4.760;2022-07-17T02:26:41;14.10;59.00
20672;DHT22;10495;50.922;4.760;2022-07-17T02:29:06;14.10;59.20
20672;DHT22;10495;50.922;4.760;2022-07-17T02:31:32;14.00;59.30
20672;DHT22;10495;50.922;4.760;2022-07-17T02:33:58;14.00;59.50
20672;DHT22;10495;50.922;4.760;2022-07-17T02:36:24;13.90;60.00
20672;DHT22;10495;50.922;4.760;2022-07-17T02:38:49;13.80;59.90
20672;DHT22;10495;50.922;4.760;2022-07-17T02:41:15;13.80;60.10
20672;DHT22;10495;50.922;4.760;2022-07-17T02:43:41;13.80;60.60
20672;DHT22;10495;50.922;4.760;2022-07-17T02:46:07;13.80;60.50
20672;DHT22;10495;50.922;4.760;2022-07-17T02:48:33;13.80;60.20
20672;DHT22;10495;50.922;4.760;2022-07-17T02:50:58;13.70;60.20
20672;DHT22;10495;50.922;4.760;2022-07-17T02:53:24;13.70;60.50
20672;DHT22;10495;50.922;4.760;2022-07-17T02:55:50;13.60;60.90
20672;DHT22;10495;50.922;4.760;2022-07-17T02:58:15;13.70;60.40
20672;DHT22;10495;50.922;4.760;2022-07-17T03:00:41;13.80;60.10
20672;DHT22;10495;50.922;4.760;2022-07-17T03:03:07;13.70;60.10
20672;DHT22;10495;50.922;4.760;2022-07-17T03:05:32;13.70;60.10
20672;DHT22;10495;50.922;4.760;2022-07-17T03:07:58;13.80;60.20
20672;DHT22;10495;50.922;4.760;2022-07-17T03:10:23;13.70;60.70
20672;DHT22;10495;50.922;4.760;2022-07-17T03:12:49;13.60;60.90
20672;DHT22;10495;50.922;4.760;2022-07-17T03:15:15;13.60;61.30
20672;DHT22;10495;50.922;4.760;2022-07-17T03:17:41;13.50;61.30
20672;DHT22;10495;50.922;4.760;2022-07-17T03:20:09;13.50;61.10
20672;DHT22;10495;50.922;4.760;2022-07-17T03:22:35;13.50;61.10
20672;DHT22;10495;50.922;4.760;2022-07-17T03:25:00;13.50;61.00
20672;DHT22;10495;50.922;4.760;2022-07-17T03:27:26;13.40;61.20
20672;DHT22;10495;50.922;4.760;2022-07-17T03:29:55;13.40;61.60
20672;DHT22;10495;50.922;4.760;2022-07-17T03:32:21;13.50;61.40
20672;DHT22;10495;50.922;4.760;2022-07-17T03:34:47;13.50;61.20
20672;DHT22;10495;50.922;4.760;2022-07-17T03:37:13;13.40;61.20
20672;DHT22;10495;50.922;4.760;2022-07-17T03:39:38;13.40;61.40
20672;DHT22;10495;50.922;4.760;2022-07-17T03:42:04;13.40;61.40
20672;DHT22;10495;50.922;4.760;2022-07-17T03:44:30;13.30;61.60
20672;DHT22;10495;50.922;4.760;2022-07-17T03:46:56;13.30;61.60
20672;DHT22;10495;50.922;4.760;2022-07-17T03:49:21;13.30;61.70
20672;DHT22;10495;50.922;4.760;2022-07-17T03:51:47;13.30;61.60
20672;DHT22;10495;50.922;4.760;2022-07-17T03:54:13;13.40;61.50
20672;DHT22;10495;50.922;4.760;2022-07-17T03:56:39;13.30;61.40
20672;DHT22;10495;50.922;4.760;2022-07-17T03:59:05;13.40;61.40
20672;DHT22;10495;50.922;4.760;2022-07-17T04:01:30;13.30;61.50
20672;DHT22;10495;50.922;4.760;2022-07-17T04:03:56;13.30;61.60
20672;DHT22;10495;50.922;4.760;2022-07-17T04:06:21;13.40;61.30
20672;DHT22;10495;50.922;4.760;2022-07-17T04:08:47;13.30;61.10
20672;DHT22;10495;50.922;4.760;2022-07-17T04:11:13;13.30;61.60
20672;DHT22;10495;50.922;4.760;2022-07-17T04:13:38;13.20;62.50
20672;DHT22;10495;50.922;4.760;2022-07-17T04:16:04;13.10;62.80
20672;DHT22;10495;50.922;4.760;2022-07-17T04:18:33;13.00;63.60
20672;DHT22;10495;50.922;4.760;2022-07-17T04:21:07;13.00;63.80
20672;DHT22;10495;50.922;4.760;2022-07-17T04:23:34;13.10;63.90
20672;DHT22;10495;50.922;4.760;2022-07-17T04:26:00;13.10;64.00
20672;DHT22;10495;50.922;4.760;2022-07-17T04:28:25;13.20;64.00
20672;DHT22;10495;50.922;4.760;2022-07-17T04:30:51;13.10;64.20
20672;DHT22;10495;50.922;4.760;2022-07-17T04:33:17;13.10;64.50
20672;DHT22;10495;50.922;4.760;2022-07-17T04:35:43;13.20;64.60
20672;DHT22;10495;50.922;4.760;2022-07-17T04:38:09;13.30;64.70
20672;DHT22;10495;50.922;4.760;2022-07-17T04:40:36;13.40;64.40
20672;DHT22;10495;50.922;4.760;2022-07-17T04:43:03;13.50;63.90
20672;DHT22;10495;50.922;4.760;2022-07-17T04:45:30;13.60;63.60
20672;DHT22;10495;50.922;4.760;2022-07-17T04:47:55;13.70;63.20
20672;DHT22;10495;50.922;4.760;2022-07-17T04:50:21;13.70;63.60
20672;DHT22;10495;50.922;4.760;2022-07-17T04:52:47;13.70;63.40
20672;DHT22;10495;50.922;4.760;2022-07-17T04:55:13;13.80;63.50
20672;DHT22;10495;50.922;4.760;2022-07-17T04:57:39;13.80;63.50
20672;DHT22;10495;50.922;4.760;2022-07-17T05:00:07;13.90;64.00
20672;DHT22;10495;50.922;4.760;2022-07-17T05:02:34;13.90;64.80
20672;DHT22;10495;50.922;4.760;2022-07-17T05:05:00;13.90;65.40
20672;DHT22;10495;50.922;4.760;2022-07-17T05:07:26;13.80;65.50
20672;DHT22;10495;50.922;4.760;2022-07-17T05:09:52;13.90;65.70
20672;DHT22;10495;50.922;4.760;2022-07-17T05:12:18;14.00;65.90
20672;DHT22;10495;50.922;4.760;2022-07-17T05:14:44;14.20;66.30
20672;DHT22;10495;50.922;4.760;2022-07-17T05:17:10;14.60;66.40
20672;DHT22;10495;50.922;4.760;2022-07-17T05:19:35;15.10;66.50
20672;DHT22;10495;50.922;4.760;2022-07-17T05:22:01;15.60;65.30
20672;DHT22;10495;50.922;4.760;2022-07-17T05:24:27;16.10;63.40
20672;DHT22;10495;50.922;4.760;2022-07-17T05:26:52;16.70;62.60
20672;DHT22;10495;50.922;4.760;2022-07-17T05:29:18;17.30;61.00
20672;DHT22;10495;50.922;4.760;2022-07-17T05:31:44;17.80;59.70
20672;DHT22;10495;50.922;4.760;2022-07-17T05:34:09;18.10;59.30
20672;DHT22;10495;50.922;4.760;2022-07-17T05:36:35;18.60;58.90
20672;DHT22;10495;50.922;4.760;2022-07-17T05:39:00;19.10;58.10
20672;DHT22;10495;50.922;4.760;2022-07-17T05:41:26;19.60;57.70
20672;DHT22;10495;50.922;4.760;2022-07-17T05:43:52;19.90;57.20
20672;DHT22;10495;50.922;4.760;2022-07-17T05:46:17;20.50;57.20
20672;DHT22;10495;50.922;4.760;2022-07-17T05:48:43;20.90;56.00
20672;DHT22;10495;50.922;4.760;2022-07-17T05:51:08;21.40;55.40
20672;DHT22;10495;50.922;4.760;2022-07-17T05:53:34;21.60;54.00
20672;DHT22;10495;50.922;4.760;2022-07-17T05:55:59;21.80;54.00
20672;DHT22;10495;50.922;4.760;2022-07-17T05:58:25;22.20;53.40
20672;DHT22;10495;50.922;4.760;2022-07-17T06:00:51;22.40;52.80
20672;DHT22;10495;50.922;4.760;2022-07-17T06:03:17;22.80;52.60
20672;DHT22;10495;50.922;4.760;2022-07-17T06:05:42;22.90;52.00
20672;DHT22;10495;50.922;4.760;2022-07-17T06:08:08;23.20;51.90
20672;DHT22;10495;50.922;4.760;2022-07-17T06:10:34;23.20;52.20
20672;DHT22;10495;50.922;4.760;2022-07-17T06:13:00;23.60;51.90
20672;DHT22;10495;50.922;4.760;2022-07-17T06:15:25;24.00;51.70
20672;DHT22;10495;50.922;4.760;2022-07-17T06:17:51;24.30;50.70
20672;DHT22;10495;50.922;4.760;2022-07-17T06:20:18;24.10;50.10
20672;DHT22;10495;50.922;4.760;2022-07-17T06:22:44;24.00;50.80
20672;DHT22;10495;50.922;4.760;2022-07-17T06:25:11;24.30;50.70
20672;DHT22;10495;50.922;4.760;2022-07-17T06:27:41;24.50;50.30
20672;DHT22;10495;50.922;4.760;2022-07-17T06:30:09;25.10;50.40
20672;DHT22;10495;50.922;4.760;2022-07-17T06:32:35;25.50;50.00
20672;DHT22;10495;50.922;4.760;2022-07-17T06:35:01;25.60;49.20
20672;DHT22;10495;50.922;4.760;2022-07-17T06:37:26;25.70;48.90
20672;DHT22;10495;50.922;4.760;2022-07-17T06:39:52;25.90;48.70
20672;DHT22;10495;50.922;4.760;2022-07-17T06:42:17;25.80;48.50
20672;DHT22;10495;50.922;4.760;2022-07-17T06:44:43;25.90;48.70
20672;DHT22;10495;50.922;4.760;2022-07-17T06:47:08;26.20;48.80
20672;DHT22;10495;50.922;4.760;2022-07-17T06:49:34;26.10;48.40
20672;DHT22;10495;50.922;4.760;2022-07-17T06:52:00;26.20;48.30
20672;DHT22;10495;50.922;4.760;2022-07-17T06:54:25;26.30;48.00
20672;DHT22;10495;50.922;4.760;2022-07-17T06:56:53;26.40;48.40
20672;DHT22;10495;50.922;4.760;2022-07-17T06:59:19;26.50;48.60
20672;DHT22;10495;50.922;4.760;2022-07-17T07:01:45;26.70;47.90
20672;DHT22;10495;50.922;4.760;2022-07-17T07:04:11;26.80;48.00
20672;DHT22;10495;50.922;4.760;2022-07-17T07:06:36;26.90;48.30
20672;DHT22;10495;50.922;4.760;2022-07-17T07:09:02;26.90;48.40
20672;DHT22;10495;50.922;4.760;2022-07-17T07:11:28;26.90;48.60
20672;DHT22;10495;50.922;4.760;2022-07-17T07:13:53;26.80;48.20
20672;DHT22;10495;50.922;4.760;2022-07-17T07:16:19;26.70;48.40
20672;DHT22;10495;50.922;4.760;2022-07-17T07:18:46;26.90;48.10
20672;DHT22;10495;50.922;4.760;2022-07-17T07:21:11;27.30;47.70
20672;DHT22;10495;50.922;4.760;2022-07-17T07:23:37;27.30;48.00
20672;DHT22;10495;50.922;4.760;2022-07-17T07:26:03;27.70;47.70
20672;DHT22;10495;50.922;4.760;2022-07-17T07:28:29;28.10;47.50
20672;DHT22;10495;50.922;4.760;2022-07-17T07:30:55;27.90;47.60
20672;DHT22;10495;50.922;4.760;2022-07-17T07:33:20;28.10;47.40
20672;DHT22;10495;50.922;4.760;2022-07-17T07:35:47;28.20;47.20
20672;DHT22;10495;50.922;4.760;2022-07-17T07:38:13;28.60;46.70
20672;DHT22;10495;50.922;4.760;2022-07-17T07:40:39;28.80;46.80
20672;DHT22;10495;50.922;4.760;2022-07-17T07:43:05;29.00;46.90
20672;DHT22;10495;50.922;4.760;2022-07-17T07:45:30;28.70;47.10
20672;DHT22;10495;50.922;4.760;2022-07-17T07:48:01;28.70;46.70
20672;DHT22;10495;50.922;4.760;2022-07-17T07:50:27;29.20;46.50
20672;DHT22;10495;50.922;4.760;2022-07-17T07:52:55;29.20;46.90
20672;DHT22;10495;50.922;4.760;2022-07-17T07:55:21;29.40;46.70
20672;DHT22;10495;50.922;4.760;2022-07-17T07:58:01;29.00;46.80
20672;DHT22;10495;50.922;4.760;2022-07-17T08:00:27;29.40;46.50
20672;DHT22;10495;50.922;4.760;2022-07-17T08:02:52;29.80;45.80
20672;DHT22;10495;50.922;4.760;2022-07-17T08:05:18;29.90;45.10
20672;DHT22;10495;50.922;4.760;2022-07-17T08:07:43;29.80;45.10
20672;DHT22;10495;50.922;4.760;2022-07-17T08:10:09;29.80;45.60
20672;DHT22;10495;50.922;4.760;2022-07-17T08:12:35;30.00;45.60
20672;DHT22;10495;50.922;4.760;2022-07-17T08:15:00;30.20;45.60
20672;DHT22;10495;50.922;4.760;2022-07-17T08:17:26;30.50;44.80
20672;DHT22;10495;50.922;4.760;2022-07-17T08:19:51;30.60;45.40
20672;DHT22;10495;50.922;4.760;2022-07-17T08:22:17;30.80;45.00
20672;DHT22;10495;50.922;4.760;2022-07-17T08:24:43;30.30;45.20
20672;DHT22;10495;50.922;4.760;2022-07-17T08:27:09;30.50;45.20
20672;DHT22;10495;50.922;4.760;2022-07-17T08:29:35;30.50;45.30
20672;DHT22;10495;50.922;4.760;2022-07-17T08:32:00;30.00;46.00
20672;DHT22;10495;50.922;4.760;2022-07-17T08:34:26;30.00;46.20
20672;DHT22;10495;50.922;4.760;2022-07-17T08:36:52;30.70;45.50
20672;DHT22;10495;50.922;4.760;2022-07-17T08:39:17;29.90;45.80
20672;DHT22;10495;50.922;4.760;2022-07-17T08:41:43;30.30;45.40
20672;DHT22;10495;50.922;4.760;2022-07-17T08:44:09;30.40;45.60
20672;DHT22;10495;50.922;4.760;2022-07-17T08:46:38;30.80;46.00
20672;DHT22;10495;50.922;4.760;2022-07-17T08:49:06;31.50;45.20
20672;DHT22;10495;50.922;4.760;2022-07-17T08:51:33;31.10;44.20
20672;DHT22;10495;50.922;4.760;2022-07-17T08:53:59;31.40;44.00
20672;DHT22;10495;50.922;4.760;2022-07-17T08:56:25;31.60;43.20
20672;DHT22;10495;50.922;4.760;2022-07-17T08:58:51;31.80;43.30
20672;DHT22;10495;50.922;4.760;2022-07-17T09:01:19;31.90;43.20
20672;DHT22;10495;50.922;4.760;2022-07-17T09:04:02;31.90;43.10
20672;DHT22;10495;50.922;4.760;2022-07-17T09:06:33;32.10;43.00
20672;DHT22;10495;50.922;4.760;2022-07-17T09:09:07;32.00;43.20
20672;DHT22;10495;50.922;4.760;2022-07-17T09:11:47;31.40;43.20
20672;DHT22;10495;50.922;4.760;2022-07-17T09:14:14;32.00;43.40
20672;DHT22;10495;50.922;4.760;2022-07-17T09:16:52;31.60;43.80
20672;DHT22;10495;50.922;4.760;2022-07-17T09:19:41;31.80;43.50
20672;DHT22;10495;50.922;4.760;2022-07-17T09:22:15;31.90;44.20
20672;DHT22;10495;50.922;4.760;2022-07-17T09:24:50;31.10;44.00
20672;DHT22;10495;50.922;4.760;2022-07-17T09:27:37;31.30;44.30
20672;DHT22;10495;50.922;4.760;2022-07-17T09:30:10;31.60;44.30
20672;DHT22;10495;50.922;4.760;2022-07-17T09:32:38;31.50;43.80
20672;DHT22;10495;50.922;4.760;2022-07-17T09:35:07;31.50;43.30
20672;DHT22;10495;50.922;4.760;2022-07-17T09:37:33;31.90;43.10
20672;DHT22;10495;50.922;4.760;2022-07-17T09:40:00;31.70;43.80
20672;DHT22;10495;50.922;4.760;2022-07-17T09:42:31;31.40;43.40
20672;DHT22;10495;50.922;4.760;2022-07-17T09:45:05;31.40;43.50
20672;DHT22;10495;50.922;4.760;2022-07-17T09:47:33;31.90;43.40
20672;DHT22;10495;50.922;4.760;2022-07-17T09:50:00;32.40;42.80
20672;DHT22;10495;50.922;4.760;2022-07-17T09:52:29;32.60;42.70
20672;DHT22;10495;50.922;4.760;2022-07-17T09:54:56;31.60;43.60
20672;DHT22;10495;50.922;4.760;2022-07-17T09:57:31;31.50;43.80
20672;DHT22;10495;50.922;4.760;2022-07-17T10:00:04;31.90;43.20
20672;DHT22;10495;50.922;4.760;2022-07-17T10:02:31;32.40;42.50
20672;DHT22;10495;50.922;4.760;2022-07-17T10:04:57;32.00;43.70
20672;DHT22;10495;50.922;4.760;2022-07-17T10:07:24;30.90;42.60
20672;DHT22;10495;50.922;4.760;2022-07-17T10:09:49;30.60;43.30
20672;DHT22;10495;50.922;4.760;2022-07-17T10:12:16;31.00;43.00
20672;DHT22;10495;50.922;4.760;2022-07-17T10:14:42;30.80;43.90
20672;DHT22;10495;50.922;4.760;2022-07-17T10:17:13;31.40;44.10
20672;DHT22;10495;50.922;4.760;2022-07-17T10:19:55;31.60;43.80
20672;DHT22;10495;50.922;4.760;2022-07-17T10:22:21;32.10;42.70
20672;DHT22;10495;50.922;4.760;2022-07-17T10:24:55;32.10;43.80
20672;DHT22;10495;50.922;4.760;2022-07-17T10:27:29;32.20;42.30
20672;DHT22;10495;50.922;4.760;2022-07-17T10:32:26;32.10;43.20
20672;DHT22;10495;50.922;4.760;2022-07-17T10:35:01;32.30;41.30
20672;DHT22;10495;50.922;4.760;2022-07-17T10:42:51;31.30;41.80
20672;DHT22;10495;50.922;4.760;2022-07-17T10:45:19;30.00;42.80
20672;DHT22;10495;50.922;4.760;2022-07-17T10:47:49;29.70;43.80
20672;DHT22;10495;50.922;4.760;2022-07-17T10:50:16;29.20;43.50
20672;DHT22;10495;50.922;4.760;2022-07-17T10:52:42;29.30;44.10
20672;DHT22;10495;50.922;4.760;2022-07-17T10:55:21;29.10;43.20
20672;DHT22;10495;50.922;4.760;2022-07-17T10:57:48;29.00;43.10
20672;DHT22;10495;50.922;4.760;2022-07-17T11:00:17;29.00;42.90
20672;DHT22;10495;50.922;4.760;2022-07-17T11:02:43;28.60;42.90
20672;DHT22;10495;50.922;4.760;2022-07-17T11:05:12;28.70;42.50
20672;DHT22;10495;50.922;4.760;2022-07-17T11:07:52;28.30;43.20
20672;DHT22;10495;50.922;4.760;2022-07-17T11:10:18;28.00;43.30
20672;DHT22;10495;50.922;4.760;2022-07-17T11:12:43;27.90;43.60
20672;DHT22;10495;50.922;4.760;2022-07-17T11:15:09;27.90;44.00
20672;DHT22;10495;50.922;4.760;2022-07-17T11:17:35;27.80;44.20
20672;DHT22;10495;50.922;4.760;2022-07-17T11:20:02;27.70;44.30
20672;DHT22;10495;50.922;4.760;2022-07-17T11:22:28;27.50;44.70
20672;DHT22;10495;50.922;4.760;2022-07-17T11:24:53;27.40;44.80
20672;DHT22;10495;50.922;4.760;2022-07-17T11:27:25;27.60;44.20
20672;DHT22;10495;50.922;4.760;2022-07-17T11:29:57;27.90;44.10
20672;DHT22;10495;50.922;4.760;2022-07-17T11:32:24;27.80;44.10
20672;DHT22;10495;50.922;4.760;2022-07-17T11:34:50;27.90;44.30
20672;DHT22;10495;50.922;4.760;2022-07-17T11:37:16;28.20;43.70
20672;DHT22;10495;50.922;4.760;2022-07-17T11:39:45;28.10;44.10
20672;DHT22;10495;50.922;4.760;2022-07-17T11:42:18;27.80;44.40
20672;DHT22;10495;50.922;4.760;2022-07-17T11:44:45;27.80;44.20
20672;DHT22;10495;50.922;4.760;2022-07-17T11:47:12;27.80;44.20
20672;DHT22;10495;50.922;4.760;2022-07-17T11:49:39;27.90;44.20
20672;DHT22;10495;50.922;4.760;2022-07-17T11:54:47;27.90;43.90
20672;DHT22;10495;50.922;4.760;2022-07-17T11:57:13;27.70;44.30
20672;DHT22;10495;50.922;4.760;2022-07-17T11:59:39;27.60;43.70
20672;DHT22;10495;50.922;4.760;2022-07-17T12:02:09;27.60;44.30
20672;DHT22;10495;50.922;4.760;2022-07-17T12:04:36;27.80;43.40
20672;DHT22;10495;50.922;4.760;2022-07-17T12:07:02;27.70;43.00
20672;DHT22;10495;50.922;4.760;2022-07-17T12:09:31;27.60;42.60
20672;DHT22;10495;50.922;4.760;2022-07-17T12:12:01;27.70;42.80
20672;DHT22;10495;50.922;4.760;2022-07-17T12:14:27;27.50;43.00
20672;DHT22;10495;50.922;4.760;2022-07-17T12:16:56;27.10;43.30
20672;DHT22;10495;50.922;4.760;2022-07-17T12:19:24;27.30;42.60
20672;DHT22;10495;50.922;4.760;2022-07-17T12:21:58;27.30;42.80
20672;DHT22;10495;50.922;4.760;2022-07-17T12:24:32;27.70;42.40
20672;DHT22;10495;50.922;4.760;2022-07-17T12:27:03;27.70;42.40
20672;DHT22;10495;50.922;4.760;2022-07-17T12:29:29;27.90;42.00
20672;DHT22;10495;50.922;4.760;2022-07-17T12:32:15;27.90;41.70
20672;DHT22;10495;50.922;4.760;2022-07-17T12:34:44;27.60;41.40
20672;DHT22;10495;50.922;4.760;2022-07-17T12:37:20;27.70;41.40
20672;DHT22;10495;50.922;4.760;2022-07-17T12:39:48;27.70;41.60
20672;DHT22;10495;50.922;4.760;2022-07-17T12:42:14;27.70;41.50
20672;DHT22;10495;50.922;4.760;2022-07-17T12:44:40;28.10;41.30
20672;DHT22;10495;50.922;4.760;2022-07-17T12:47:07;27.70;42.70
20672;DHT22;10495;50.922;4.760;2022-07-17T12:49:33;27.60;42.30
20672;DHT22;10495;50.922;4.760;2022-07-17T12:51:59;27.80;41.80
20672;DHT22;10495;50.922;4.760;2022-07-17T12:54:24;28.10;41.70
20672;DHT22;10495;50.922;4.760;2022-07-17T12:56:50;28.00;41.70
20672;DHT22;10495;50.922;4.760;2022-07-17T12:59:16;27.50;42.30
20672;DHT22;10495;50.922;4.760;2022-07-17T13:01:42;27.60;42.00
20672;DHT22;10495;50.922;4.760;2022-07-17T13:04:07;27.50;42.40
20672;DHT22;10495;50.922;4.760;2022-07-17T13:06:33;27.40;42.50
20672;DHT22;10495;50.922;4.760;2022-07-17T13:09:00;27.70;42.30
20672;DHT22;10495;50.922;4.760;2022-07-17T13:11:26;27.60;42.40
20672;DHT22;10495;50.922;4.760;2022-07-17T13:13:52;27.60;42.30
20672;DHT22;10495;50.922;4.760;2022-07-17T13:16:18;27.70;42.40
20672;DHT22;10495;50.922;4.760;2022-07-17T13:18:44;27.70;42.30
20672;DHT22;10495;50.922;4.760;2022-07-17T13:21:10;27.70;43.00
20672;DHT22;10495;50.922;4.760;2022-07-17T13:23:36;27.60;43.40
20672;DHT22;10495;50.922;4.760;2022-07-17T13:26:02;27.50;42.70
20672;DHT22;10495;50.922;4.760;2022-07-17T13:28:28;27.70;42.30
20672;DHT22;10495;50.922;4.760;2022-07-17T13:30:55;27.60;42.40
20672;DHT22;10495;50.922;4.760;2022-07-17T13:33:21;27.50;42.70
20672;DHT22;10495;50.922;4.760;2022-07-17T13:35:47;27.60;42.70
20672;DHT22;10495;50.922;4.760;2022-07-17T13:38:13;27.70;43.00
20672;DHT22;10495;50.922;4.760;2022-07-17T13:40:38;27.90;41.60
20672;DHT22;10495;50.922;4.760;2022-07-17T13:43:04;28.20;41.60
20672;DHT22;10495;50.922;4.760;2022-07-17T13:45:30;28.20;41.80
20672;DHT22;10495;50.922;4.760;2022-07-17T13:47:56;28.00;42.00
20672;DHT22;10495;50.922;4.760;2022-07-17T13:50:22;27.80;42.30
20672;DHT22;10495;50.922;4.760;2022-07-17T13:52:48;27.90;42.00
20672;DHT22;10495;50.922;4.760;2022-07-17T13:55:13;28.00;41.80
20672;DHT22;10495;50.922;4.760;2022-07-17T13:57:40;27.50;41.90
20672;DHT22;10495;50.922;4.760;2022-07-17T14:00:06;27.50;42.10
20672;DHT22;10495;50.922;4.760;2022-07-17T14:02:34;27.40;42.20
20672;DHT22;10495;50.922;4.760;2022-07-17T14:05:00;27.80;42.00
20672;DHT22;10495;50.922;4.760;2022-07-17T14:07:25;27.90;42.20
20672;DHT22;10495;50.922;4.760;2022-07-17T14:09:51;28.00;42.50
20672;DHT22;10495;50.922;4.760;2022-07-17T14:12:17;27.90;42.70
20672;DHT22;10495;50.922;4.760;2022-07-17T14:14:42;28.10;42.30
20672;DHT22;10495;50.922;4.760;2022-07-17T14:17:08;27.90;42.20
20672;DHT22;10495;50.922;4.760;2022-07-17T14:19:34;28.20;41.80
20672;DHT22;10495;50.922;4.760;2022-07-17T14:22:01;28.10;42.20
20672;DHT22;10495;50.922;4.760;2022-07-17T14:24:26;28.00;42.30
20672;DHT22;10495;50.922;4.760;2022-07-17T14:26:52;28.10;42.30
20672;DHT22;10495;50.922;4.760;2022-07-17T14:29:18;28.10;42.60
20672;DHT22;10495;50.922;4.760;2022-07-17T14:31:44;28.40;42.00
20672;DHT22;10495;50.922;4.760;2022-07-17T14:34:10;28.50;42.00
20672;DHT22;10495;50.922;4.760;2022-07-17T14:36:36;28.50;41.80
20672;DHT22;10495;50.922;4.760;2022-07-17T14:39:02;28.50;41.70
20672;DHT22;10495;50.922;4.760;2022-07-17T14:41:27;28.60;41.50
20672;DHT22;10495;50.922;4.760;2022-07-17T14:43:53;28.60;41.20
20672;DHT22;10495;50.922;4.760;2022-07-17T14:46:19;28.80;40.60
20672;DHT22;10495;50.922;4.760;2022-07-17T14:48:45;28.60;41.30
20672;DHT22;10495;50.922;4.760;2022-07-17T14:51:10;28.80;41.00
20672;DHT22;10495;50.922;4.760;2022-07-17T14:53:36;28.70;41.10
20672;DHT22;10495;50.922;4.760;2022-07-17T14:56:02;28.70;40.90
20672;DHT22;10495;50.922;4.760;2022-07-17T14:58:27;28.70;40.70
20672;DHT22;10495;50.922;4.760;2022-07-17T15:00:53;28.80;41.20
20672;DHT22;10495;50.922;4.760;2022-07-17T15:03:18;28.70;41.60
20672;DHT22;10495;50.922;4.760;2022-07-17T15:05:44;28.70;41.60
20672;DHT22;10495;50.922;4.760;2022-07-17T15:08:10;28.60;41.70
20672;DHT22;10495;50.922;4.760;2022-07-17T15:10:35;28.50;41.40
20672;DHT22;10495;50.922;4.760;2022-07-17T15:13:01;28.40;41.40
20672;DHT22;10495;50.922;4.760;2022-07-17T15:15:27;28.40;41.50
20672;DHT22;10495;50.922;4.760;2022-07-17T15:17:52;28.40;41.50
20672;DHT22;10495;50.922;4.760;2022-07-17T15:20:18;28.40;42.10
20672;DHT22;10495;50.922;4.760;2022-07-17T15:22:44;28.60;41.50
20672;DHT22;10495;50.922;4.760;2022-07-17T15:25:10;28.50;41.50
20672;DHT22;10495;50.922;4.760;2022-07-17T15:27:35;28.40;41.40
20672;DHT22;10495;50.922;4.760;2022-07-17T15:30:02;28.40;41.90
20672;DHT22;10495;50.922;4.760;2022-07-17T15:32:28;28.80;41.40
20672;DHT22;10495;50.922;4.760;2022-07-17T15:34:53;28.70;41.30
20672;DHT22;10495;50.922;4.760;2022-07-17T15:37:19;28.60;40.90